Bookmark and Share
Track history (hours):
 

Faust

Last reported at 2014-Apr-23 09:29 UTC. Time now 2014-Apr-23 09:48 UTC.
Position S 29°52' E 031°02'.

Length 227.8 m; beam 32.3 m; draft 9.5 m.

Type: Cargo ship. MMSI: 266260000.

NotesDate/timePositionNaut miles runAvg speedWind from/ knotsBaromVisibWave heightAir tempDewpointWater temp
2014-Apr-23 09:29S 29°52' E 031°02'0 0.0
2014-Apr-23 08:33S 29°52' E 031°02'5 5.0
2014-Apr-23 07:33S 29°49' E 031°07'3 2.5
2014-Apr-23 06:33S 29°50' E 031°09'5 5.2
2014-Apr-23 05:33S 29°54' E 031°06'1616.0
2014-Apr-23 04:33S 30°08' E 030°57'18215.9
2014-Apr-22 17:07S 32°30' E 028°45'67 4.5
2014-Apr-22 02:11S 33°14' E 027°43'7012.3
2014-Apr-21 20:33S 33°50' E 026°32'92 3.9
2014-Apr-20 21:11S 34°17' E 024°46'1014.7
2014-Apr-20 20:31S 34°18' E 024°34'26314.5
2014-Apr-20 02:23S 34°45' E 019°17'1315.7
2014-Apr-20 01:33S 34°40' E 019°02'1515.3
2014-Apr-20 00:33S 34°34' E 018°45'1914.7
2014-Apr-19 23:16S 34°27' E 018°25'2514.6
2014-Apr-19 21:32S 34°06' E 018°06'8914.8
2014-Apr-19 15:31S 32°55' E 017°01'1815.1
2014-Apr-19 14:21S 32°41' E 016°49'2815.1
2014-Apr-19 12:28S 32°19' E 016°29'1415.1
2014-Apr-19 11:33S 32°07' E 016°19'3215.0
2014-Apr-19 09:26S 31°42' E 015°56'  

Dump ship's entire track history

sailing weather and tide predictions

Faust — SLKQ — position and weather